To NAV CANADA Home Page Login to a new session Search on AWWS site Feedback and Comments Disclaimer Vers la page française équivalente Tips FAQ What's new on the site To the Forecasts and Observations / NOTAM section To "File a Flight Plan" website Publications and other links Update of the User's profile FIC Telephone Numbers My Weather Data Folder Route Weather Data Regional Weather Data Local Weather Data To the Forecasts and Observations / NOTAM section
Request Generated 05/24/2016 at 09:48:50 UTC . Weather information available at that time is displayed.

METAR/TAF

KITCHENER/WATERLOO/ON    (show WxCam)

METAR CYKF 240900Z AUTO 35002KT 9SM CLR 06/04 A2999 RMK SLP157=
METAR CYKF 240800Z AUTO 00000KT 9SM CLR 08/06 A2999 RMK SLP156=
METAR CYKF 240700Z AUTO 36003KT 9SM CLR 07/05 A2999 RMK SLP157=

TAF CYKF 240938Z 2410/2422 VRB03KT P6SM SKC
BECMG 2410/2412 28008KT
RMK FCST BASED ON AUTO OBS. NXT FCST BY 241400Z=
Your time UTC time
Weather data provided by Environment Canada and NAV CANADA